createdAt,value
2022-10-02T00:00:37.013Z,21.92
2022-10-02T00:03:18.476Z,19.35
2022-10-02T00:05:51.024Z,26.48
2022-10-02T00:08:39.204Z,18.48
2022-10-02T00:11:24.843Z,20.88
2022-10-02T00:13:59.700Z,24.50
2022-10-02T00:16:47.476Z,18.88
2022-10-02T00:19:19.646Z,20.05
2022-10-02T00:22:02.405Z,20.42
2022-10-02T00:24:59.077Z,19.40
2022-10-02T00:27:48.656Z,19.48
2022-10-02T00:30:19.580Z,21.75
2022-10-02T00:33:04.469Z,17.17
2022-10-02T00:35:47.060Z,16.92
2022-10-02T00:38:53.391Z,19.13
2022-10-02T00:42:03.945Z,21.60
2022-10-02T00:44:53.048Z,20.33
2022-10-02T00:47:39.459Z,28.90
2022-10-02T00:50:31.795Z,17.70
2022-10-02T00:53:03.998Z,20.65
2022-10-02T00:56:27.823Z,16.52
2022-10-02T00:59:16.900Z,21.77
2022-10-02T01:02:04.042Z,20.02
2022-10-02T01:04:37.201Z,18.13
2022-10-02T01:07:11.956Z,21.73
2022-10-02T01:09:40.791Z,20.45
2022-10-02T01:12:09.146Z,19.00
2022-10-02T01:14:39.293Z,15.57
2022-10-02T01:17:22.311Z,24.75
2022-10-02T01:19:53.023Z,30.75
2022-10-02T01:22:25.875Z,25.15
2022-10-02T01:24:58.519Z,19.88
2022-10-02T01:27:29.051Z,26.05
2022-10-02T01:30:05.347Z,29.02
2022-10-02T01:32:34.315Z,33.53
2022-10-02T01:35:06.045Z,25.83
2022-10-02T01:37:37.023Z,26.80
2022-10-02T01:40:11.768Z,31.08
2022-10-02T01:42:41.192Z,32.85
2022-10-02T01:45:10.605Z,29.58
2022-10-02T01:47:45.306Z,35.28
2022-10-02T01:50:13.318Z,22.02
2022-10-02T01:53:14.448Z,29.98
2022-10-02T01:56:14.151Z,25.92
2022-10-02T01:58:47.508Z,38.08
2022-10-02T02:01:30.283Z,24.30
2022-10-02T02:04:22.940Z,29.08
2022-10-02T02:07:12.129Z,21.67
2022-10-02T02:09:47.246Z,27.23
2022-10-02T02:12:48.266Z,25.10
2022-10-02T02:15:30.750Z,20.55
2022-10-02T02:18:12.602Z,23.83
2022-10-02T02:20:51.855Z,33.83
2022-10-02T02:23:27.459Z,29.75
2022-10-02T02:26:04.235Z,21.33
2022-10-02T02:28:34.729Z,28.25
2022-10-02T02:31:12.573Z,24.90
2022-10-02T02:33:48.777Z,23.02
2022-10-02T02:36:20.450Z,29.08
2022-10-02T02:38:57.517Z,31.17
2022-10-02T02:41:29.172Z,25.23
2022-10-02T02:44:09.386Z,26.45
2022-10-02T02:46:51.946Z,48.15
2022-10-02T02:49:20.049Z,34.72
2022-10-02T02:51:49.000Z,24.67
2022-10-02T02:54:27.075Z,22.92
2022-10-02T02:57:01.956Z,23.92
2022-10-02T02:59:34.799Z,25.23
2022-10-02T03:02:05.816Z,42.90
2022-10-02T03:04:36.736Z,25.02
2022-10-02T03:07:06.670Z,30.70
2022-10-02T03:09:34.906Z,18.58
2022-10-02T03:12:13.031Z,30.05
2022-10-02T03:15:09.915Z,22.20
2022-10-02T03:18:06.145Z,28.58
2022-10-02T03:21:00.936Z,26.85
2022-10-02T03:23:57.849Z,26.65
2022-10-02T03:26:36.209Z,37.05
2022-10-02T03:29:09.264Z,16.92
2022-10-02T03:31:37.910Z,25.40
2022-10-02T03:34:06.664Z,30.48
2022-10-02T03:36:35.202Z,22.17
2022-10-02T03:39:24.328Z,24.55
2022-10-02T03:41:54.192Z,34.10
2022-10-02T03:44:22.272Z,25.30
2022-10-02T03:46:50.448Z,26.33
2022-10-02T03:49:18.552Z,26.23
2022-10-02T03:51:46.564Z,34.30
2022-10-02T03:54:18.830Z,24.95
2022-10-02T03:57:05.234Z,21.67
2022-10-02T03:59:58.477Z,21.35
2022-10-02T04:02:32.161Z,23.15
2022-10-02T04:05:36.420Z,22.10
2022-10-02T04:08:12.236Z,16.17
2022-10-02T04:11:09.072Z,23.55
2022-10-02T04:13:43.968Z,29.50
2022-10-02T04:16:28.154Z,31.45
2022-10-02T04:19:20.039Z,35.88
2022-10-02T04:21:55.426Z,37.92
2022-10-02T04:24:39.264Z,37.10
2022-10-02T04:27:18.890Z,42.47
2022-10-02T04:30:10.154Z,38.88
2022-10-02T04:32:38.753Z,29.85
2022-10-02T04:35:31.957Z,33.97
2022-10-02T04:38:19.641Z,42.75
2022-10-02T04:41:13.632Z,38.05
2022-10-02T04:43:53.554Z,37.90
2022-10-02T04:46:51.581Z,32.67
2022-10-02T04:49:40.798Z,43.83
2022-10-02T04:52:59.224Z,50.15
2022-10-02T04:55:33.059Z,39.40
2022-10-02T04:58:03.908Z,40.40
2022-10-02T05:00:43.616Z,42.08
2022-10-02T05:03:23.448Z,45.67
2022-10-02T05:06:21.935Z,37.22
2022-10-02T05:09:28.623Z,35.65
2022-10-02T05:12:20.556Z,41.40
2022-10-02T05:15:24.295Z,35.90
2022-10-02T05:18:19.121Z,41.50
2022-10-02T05:21:22.705Z,37.00
2022-10-02T05:24:31.288Z,39.92
2022-10-02T05:27:08.260Z,37.35
2022-10-02T05:30:09.381Z,32.10
2022-10-02T05:33:07.163Z,33.72
2022-10-02T05:35:48.898Z,30.65
2022-10-02T05:38:49.615Z,30.90
2022-10-02T05:41:33.233Z,30.58
2022-10-02T05:44:08.045Z,29.30
2022-10-02T05:47:02.327Z,29.67
2022-10-02T05:49:46.166Z,41.13
2022-10-02T05:52:20.893Z,35.15
2022-10-02T05:55:17.749Z,39.30
2022-10-02T05:58:06.812Z,44.95
2022-10-02T06:00:45.087Z,48.47
2022-10-02T06:03:43.127Z,34.17
2022-10-02T06:06:55.125Z,41.38
2022-10-02T06:09:28.319Z,35.13
2022-10-02T06:12:21.686Z,35.03
2022-10-02T06:14:58.786Z,42.70
2022-10-02T06:17:31.948Z,35.55
2022-10-02T06:20:20.667Z,45.03
2022-10-02T06:23:11.556Z,37.95
2022-10-02T06:26:25.973Z,49.30
2022-10-02T06:29:18.666Z,39.73
2022-10-02T06:32:07.300Z,40.60
2022-10-02T06:34:35.408Z,38.08
2022-10-02T06:37:35.546Z,46.58
2022-10-02T06:40:03.976Z,42.17
2022-10-02T06:42:41.446Z,37.72
2022-10-02T06:45:24.442Z,39.83
2022-10-02T06:48:31.416Z,38.78
2022-10-02T06:51:12.868Z,37.13
2022-10-02T06:54:09.128Z,40.67
2022-10-02T06:56:50.213Z,38.58
2022-10-02T06:59:32.888Z,37.47
2022-10-02T07:02:26.734Z,36.38
2022-10-02T07:05:25.391Z,28.65
2022-10-02T07:08:04.422Z,42.00
2022-10-02T07:10:41.882Z,35.17
2022-10-02T07:13:28.174Z,34.05
2022-10-02T07:16:09.289Z,40.85
2022-10-02T07:18:57.498Z,39.85
2022-10-02T07:21:58.505Z,43.42
2022-10-02T07:24:36.198Z,47.45
2022-10-02T07:27:04.140Z,37.75
2022-10-02T07:30:07.486Z,39.13
2022-10-02T07:32:46.812Z,39.00
2022-10-02T07:35:51.751Z,36.35
2022-10-02T07:41:00.107Z,44.83
2022-10-02T07:43:55.766Z,46.00
2022-10-02T07:46:40.596Z,59.75
2022-10-02T07:49:33.369Z,47.42
2022-10-02T07:52:23.935Z,58.63
2022-10-02T07:55:30.603Z,47.55
2022-10-02T07:58:09.601Z,47.75
2022-10-02T08:00:49.061Z,42.90
2022-10-02T08:03:31.422Z,49.38
2022-10-02T08:06:03.801Z,53.67
2022-10-02T08:08:40.577Z,48.38
2022-10-02T08:11:11.429Z,43.83
2022-10-02T08:14:05.780Z,49.22
2022-10-02T08:16:42.461Z,46.78
2022-10-02T08:19:21.125Z,51.80
2022-10-02T08:22:01.477Z,47.67
2022-10-02T08:24:44.035Z,51.60
2022-10-02T08:27:23.101Z,55.83
2022-10-02T08:30:05.788Z,54.03
2022-10-02T08:32:37.046Z,48.75
2022-10-02T08:35:16.936Z,43.45
2022-10-02T08:37:59.734Z,39.22
2022-10-02T08:40:49.231Z,41.95
2022-10-02T08:43:44.224Z,46.42
2022-10-02T08:46:39.419Z,41.25
2022-10-02T08:49:34.875Z,44.10
2022-10-02T08:52:20.924Z,40.20
2022-10-02T08:54:51.766Z,41.20
2022-10-02T08:57:19.758Z,42.40
2022-10-02T09:00:06.224Z,41.58
2022-10-02T09:03:13.727Z,41.03
2022-10-02T09:05:53.912Z,38.92
2022-10-02T09:08:58.641Z,31.52
2022-10-02T09:11:44.763Z,40.40
2022-10-02T09:14:44.178Z,41.90
2022-10-02T09:17:12.127Z,43.33
2022-10-02T09:19:59.220Z,47.70
2022-10-02T09:23:20.998Z,52.33
2022-10-02T09:26:13.245Z,53.35
2022-10-02T09:28:46.379Z,50.85
2022-10-02T09:31:32.675Z,43.03
2022-10-02T09:34:22.061Z,50.30
2022-10-02T09:37:14.418Z,53.30
2022-10-02T09:40:00.844Z,44.42
2022-10-02T09:42:40.483Z,41.25
2022-10-02T09:45:49.785Z,36.95
2022-10-02T09:48:20.445Z,41.13
2022-10-02T09:51:12.310Z,45.45
2022-10-02T09:53:58.373Z,45.25
2022-10-02T09:56:50.380Z,39.45
2022-10-02T09:59:32.833Z,48.50
2022-10-02T10:02:16.032Z,41.90
2022-10-02T10:05:06.454Z,50.15
2022-10-02T10:07:50.834Z,48.45
2022-10-02T10:10:49.588Z,61.92
2022-10-02T10:13:23.410Z,55.78
2022-10-02T10:16:09.531Z,52.42
2022-10-02T10:19:23.484Z,60.03
2022-10-02T10:22:29.348Z,44.78
2022-10-02T10:24:59.975Z,57.65
2022-10-02T10:27:39.551Z,47.45
2022-10-02T10:30:44.350Z,38.22
2022-10-02T10:33:27.197Z,48.45
2022-10-02T10:36:16.243Z,41.33
2022-10-02T10:39:00.074Z,52.03
2022-10-02T10:41:46.556Z,54.95
2022-10-02T10:44:14.526Z,44.00
2022-10-02T10:46:42.492Z,50.47
2022-10-02T10:49:49.252Z,66.53
2022-10-02T10:52:28.865Z,55.33
2022-10-02T10:55:22.012Z,53.08
2022-10-02T10:58:10.838Z,50.03
2022-10-02T11:01:04.481Z,51.00
2022-10-02T11:03:44.447Z,57.43
2022-10-02T11:06:30.302Z,53.28
2022-10-02T11:09:18.648Z,51.67
2022-10-02T11:12:09.432Z,44.15
2022-10-02T11:14:58.389Z,51.80
2022-10-02T11:17:47.963Z,48.33
2022-10-02T11:20:33.794Z,46.75
2022-10-02T11:23:20.262Z,37.70
2022-10-02T11:26:11.320Z,40.15
2022-10-02T11:28:48.188Z,40.03
2022-10-02T11:31:47.701Z,39.83
2022-10-02T11:34:37.036Z,49.60
2022-10-02T11:37:24.817Z,59.92
2022-10-02T11:40:11.152Z,51.20
2022-10-02T11:42:58.452Z,39.92
2022-10-02T11:45:52.622Z,52.90
2022-10-02T11:48:50.448Z,62.53
2022-10-02T11:51:29.539Z,54.42
2022-10-02T11:54:06.007Z,52.58
2022-10-02T11:57:10.649Z,49.03
2022-10-02T11:59:47.757Z,63.85
2022-10-02T12:02:34.208Z,52.55
2022-10-02T12:05:15.574Z,58.67
2022-10-02T12:07:48.234Z,45.38
2022-10-02T12:10:53.236Z,49.92
2022-10-02T12:13:49.031Z,49.33
2022-10-02T12:16:19.857Z,57.40
2022-10-02T12:18:56.759Z,45.20
2022-10-02T12:21:52.054Z,42.30
2022-10-02T12:24:34.706Z,50.53
2022-10-02T12:27:28.047Z,42.17
2022-10-02T12:30:10.328Z,49.70
2022-10-02T12:32:46.425Z,50.60
2022-10-02T12:35:32.396Z,40.78
2022-10-02T12:38:18.121Z,50.22
2022-10-02T12:41:12.999Z,41.08
2022-10-02T12:44:27.770Z,41.35
2022-10-02T12:47:19.951Z,48.85
2022-10-02T12:50:09.307Z,48.05
2022-10-02T12:53:13.905Z,47.30
2022-10-02T12:56:38.189Z,57.65
2022-10-02T12:59:41.246Z,60.85
2022-10-02T13:02:49.471Z,56.47
2022-10-02T13:05:28.008Z,59.08
2022-10-02T13:08:11.086Z,60.28
2022-10-02T13:10:55.417Z,68.50
2022-10-02T13:16:29.048Z,53.10
2022-10-02T13:19:40.798Z,40.53
2022-10-02T13:22:12.824Z,42.15
2022-10-02T13:25:18.512Z,40.15
2022-10-02T13:27:53.091Z,48.17
2022-10-02T13:30:23.101Z,51.30
2022-10-02T13:33:29.429Z,53.58
2022-10-02T13:36:20.679Z,57.47
2022-10-02T13:39:01.047Z,52.17
2022-10-02T13:42:01.821Z,66.85
2022-10-02T13:44:59.838Z,57.05
2022-10-02T13:47:42.460Z,43.78
2022-10-02T13:50:40.654Z,48.97
2022-10-02T13:53:33.067Z,40.75
2022-10-02T13:56:32.799Z,49.40
2022-10-02T13:59:18.692Z,55.53
2022-10-02T14:01:52.553Z,51.92
2022-10-02T14:04:42.057Z,46.85
2022-10-02T14:07:21.858Z,48.13
2022-10-02T14:09:52.719Z,51.00
2022-10-02T14:12:34.896Z,41.22
2022-10-02T14:15:21.623Z,39.45
2022-10-02T14:18:04.527Z,31.90
2022-10-02T14:20:41.017Z,38.30
2022-10-02T14:23:42.222Z,46.70
2022-10-02T14:26:25.142Z,37.85
2022-10-02T14:29:09.007Z,44.30
2022-10-02T14:32:05.401Z,51.65
2022-10-02T14:35:14.953Z,53.83
2022-10-02T14:38:24.262Z,54.85
2022-10-02T14:40:57.426Z,63.33
2022-10-02T14:44:06.489Z,61.80
2022-10-02T14:46:42.106Z,54.17
2022-10-02T14:49:47.062Z,52.95
2022-10-02T14:52:23.907Z,50.85
2022-10-02T14:55:25.504Z,55.55
2022-10-02T14:58:15.537Z,51.28
2022-10-02T15:00:52.403Z,58.17
2022-10-02T15:03:41.105Z,50.63
2022-10-02T15:06:26.799Z,44.85
2022-10-02T15:09:09.278Z,41.97
2022-10-02T15:11:37.497Z,39.92
2022-10-02T15:14:32.890Z,43.15
2022-10-02T15:17:06.296Z,39.17
2022-10-02T15:20:21.558Z,45.90
2022-10-02T15:25:52.177Z,33.28
2022-10-02T15:28:51.160Z,39.15
2022-10-02T15:31:42.718Z,37.83
2022-10-02T15:34:24.582Z,34.08
2022-10-02T15:37:10.294Z,33.08
2022-10-02T15:40:05.219Z,34.90
2022-10-02T15:42:42.212Z,34.17
2022-10-02T15:45:39.024Z,34.83
2022-10-02T15:48:35.143Z,37.38
2022-10-02T15:51:37.863Z,32.15
2022-10-02T15:54:15.359Z,33.28
2022-10-02T15:57:07.364Z,28.15
2022-10-02T15:59:53.708Z,26.63
2022-10-02T16:02:37.705Z,34.28
2022-10-02T16:05:21.837Z,26.27
2022-10-02T16:08:04.841Z,30.17
2022-10-02T16:11:03.984Z,28.95
2022-10-02T16:13:47.411Z,34.13
2022-10-02T16:16:30.325Z,32.78
2022-10-02T16:19:22.148Z,29.30
2022-10-02T16:22:20.280Z,33.90
2022-10-02T16:25:03.123Z,28.20
2022-10-02T16:28:00.798Z,29.02
2022-10-02T16:30:39.627Z,28.85
2022-10-02T16:33:10.257Z,21.85
2022-10-02T16:35:59.043Z,27.42
2022-10-02T16:38:36.182Z,34.85
2022-10-02T16:41:13.064Z,23.58
2022-10-02T16:43:51.960Z,21.70
2022-10-02T16:46:32.910Z,21.88
2022-10-02T16:49:34.300Z,25.08
2022-10-02T16:52:12.306Z,27.38
2022-10-02T16:54:51.086Z,25.50
2022-10-02T16:57:40.543Z,31.80
2022-10-02T17:00:16.046Z,37.58
2022-10-02T17:02:49.216Z,24.08
2022-10-02T17:05:33.008Z,21.83
2022-10-02T17:08:18.075Z,26.83
2022-10-02T17:10:46.067Z,24.23
2022-10-02T17:13:33.004Z,23.55
2022-10-02T17:16:11.199Z,26.00
2022-10-02T17:18:55.473Z,26.17
2022-10-02T17:21:32.950Z,20.83
2022-10-02T17:24:18.928Z,21.15
2022-10-02T17:26:53.968Z,26.00
2022-10-02T17:29:48.753Z,28.83
2022-10-02T17:32:40.091Z,24.63
2022-10-02T17:35:17.884Z,30.60
2022-10-02T17:38:05.236Z,26.73
2022-10-02T17:40:38.248Z,30.85
2022-10-02T17:43:22.730Z,24.30
2022-10-02T17:46:21.060Z,22.25
2022-10-02T17:48:57.635Z,25.27
2022-10-02T17:51:57.228Z,23.52
2022-10-02T17:54:37.252Z,25.33
2022-10-02T17:57:32.882Z,22.55
2022-10-02T18:00:09.490Z,21.90
2022-10-02T18:02:49.149Z,28.05
2022-10-02T18:05:33.878Z,22.67
2022-10-02T18:08:35.279Z,20.25
2022-10-02T18:11:27.289Z,26.42
2022-10-02T18:14:23.106Z,23.40
2022-10-02T18:17:15.232Z,21.75
2022-10-02T18:20:24.356Z,26.40
2022-10-02T18:22:52.350Z,24.02
2022-10-02T18:25:50.380Z,40.83
2022-10-02T18:28:45.510Z,24.85
2022-10-02T18:31:28.843Z,17.70
2022-10-02T18:34:21.725Z,26.90
2022-10-02T18:37:13.950Z,25.65
2022-10-02T18:40:18.781Z,21.65
2022-10-02T18:43:06.837Z,22.33
2022-10-02T18:45:49.263Z,18.40
2022-10-02T18:48:37.885Z,19.20
2022-10-02T18:51:31.488Z,22.73
2022-10-02T18:54:23.740Z,23.35
2022-10-02T18:56:57.544Z,20.23
2022-10-02T18:59:52.328Z,19.35
2022-10-02T19:02:55.680Z,21.42
2022-10-02T19:05:32.831Z,16.45
2022-10-02T19:08:03.720Z,18.27
2022-10-02T19:10:31.662Z,18.08
2022-10-02T19:13:21.801Z,16.05
2022-10-02T19:15:52.698Z,21.83
2022-10-02T19:18:22.522Z,19.35
2022-10-02T19:21:05.094Z,17.15
2022-10-02T19:23:41.938Z,20.02
2022-10-02T19:26:18.162Z,16.33
2022-10-02T19:28:51.190Z,24.00
2022-10-02T19:31:27.439Z,18.27
2022-10-02T19:33:58.780Z,18.88
2022-10-02T19:36:32.814Z,20.80
2022-10-02T19:39:07.528Z,23.77
2022-10-02T19:41:43.719Z,15.85
2022-10-02T19:44:26.599Z,17.50
2022-10-02T19:46:56.974Z,15.50
2022-10-02T19:49:32.554Z,16.55
2022-10-02T19:52:03.968Z,17.30
2022-10-02T19:54:39.004Z,21.35
2022-10-02T19:57:16.920Z,16.98
2022-10-02T19:59:55.045Z,16.55
2022-10-02T20:02:25.243Z,15.02
2022-10-02T20:04:57.880Z,14.00
2022-10-02T20:07:29.176Z,15.15
2022-10-02T20:10:10.109Z,15.10
2022-10-02T20:12:52.603Z,19.35
2022-10-02T20:16:01.047Z,13.70
2022-10-02T20:18:29.278Z,22.25
2022-10-02T20:21:18.089Z,20.25
2022-10-02T20:23:52.351Z,19.08
2022-10-02T20:26:26.426Z,50.30
2022-10-02T20:29:04.273Z,14.75
2022-10-02T20:31:42.507Z,23.15
2022-10-02T20:34:22.191Z,16.92
2022-10-02T20:37:04.288Z,19.88
2022-10-02T20:40:00.050Z,21.38
2022-10-02T20:43:05.004Z,17.67
2022-10-02T20:45:43.484Z,21.90
2022-10-02T20:48:43.735Z,16.92
2022-10-02T20:51:56.036Z,19.35
2022-10-02T20:54:32.594Z,15.43
2022-10-02T20:57:56.483Z,22.15
2022-10-02T21:00:26.933Z,13.77
2022-10-02T21:03:31.918Z,13.60
2022-10-02T21:06:38.235Z,16.75
2022-10-02T21:09:32.224Z,22.33
2022-10-02T21:12:40.121Z,15.02
2022-10-02T21:15:20.918Z,14.95
2022-10-02T21:17:58.115Z,15.68
2022-10-02T21:20:50.724Z,17.75
2022-10-02T21:23:49.990Z,19.00
2022-10-02T21:26:54.926Z,12.98
2022-10-02T21:29:29.648Z,22.95
2022-10-02T21:32:28.582Z,13.07
2022-10-02T21:35:04.253Z,13.60
2022-10-02T21:37:48.290Z,14.50
2022-10-02T21:40:55.012Z,11.55
2022-10-02T21:43:35.265Z,12.75
2022-10-02T21:46:12.010Z,14.77
2022-10-02T21:49:00.655Z,16.50
2022-10-02T21:51:38.187Z,14.75
2022-10-02T21:54:24.053Z,22.20
2022-10-02T21:57:20.822Z,12.70
2022-10-02T22:00:21.567Z,17.95
2022-10-02T22:03:25.856Z,18.48
2022-10-02T22:06:06.381Z,12.60
2022-10-02T22:08:52.552Z,16.27
2022-10-02T22:11:31.264Z,13.82
2022-10-02T22:14:08.349Z,25.88
2022-10-02T22:16:51.082Z,21.30
2022-10-02T22:19:29.872Z,19.02
2022-10-02T22:22:09.649Z,15.32
2022-10-02T22:24:57.978Z,25.35
2022-10-02T22:27:55.319Z,13.10
2022-10-02T22:30:31.799Z,11.98
2022-10-02T22:33:18.169Z,19.65
2022-10-02T22:36:05.624Z,21.08
2022-10-02T22:38:39.299Z,15.40
2022-10-02T22:43:49.881Z,14.93
2022-10-02T22:46:23.801Z,12.45
2022-10-02T22:48:59.541Z,18.05
2022-10-02T22:51:56.755Z,13.23
2022-10-02T22:54:36.386Z,15.90
2022-10-02T22:57:04.489Z,17.73
2022-10-02T23:00:01.410Z,10.15
2022-10-02T23:02:44.130Z,18.55
2022-10-02T23:05:18.460Z,18.80
2022-10-02T23:08:13.219Z,14.25
2022-10-02T23:10:50.697Z,12.50
2022-10-02T23:13:48.017Z,10.43
2022-10-02T23:16:30.915Z,14.23
2022-10-02T23:19:15.943Z,17.80
2022-10-02T23:21:45.891Z,12.20
2022-10-02T23:24:14.286Z,16.50
2022-10-02T23:27:16.786Z,12.93
2022-10-02T23:29:53.345Z,9.75
2022-10-02T23:32:21.277Z,12.30
2022-10-02T23:34:52.323Z,11.00
2022-10-02T23:37:41.031Z,15.85
2022-10-02T23:40:22.550Z,16.67
2022-10-02T23:43:04.165Z,14.77
2022-10-02T23:45:43.687Z,12.60
2022-10-02T23:48:15.169Z,13.25
2022-10-02T23:51:07.290Z,15.52
2022-10-02T23:54:04.444Z,14.15
2022-10-02T23:56:44.237Z,17.33
2022-10-02T23:59:32.656Z,13.35
